Indonesian Bulker — HODY — position and weather

sailwx.info

Track history (hours):
 
Tides and Currents Weather Stations Pressure Air Temp Water Temp Dewpoint Dewpoint Depression Visibility Wind Speed Wind Dir Waves Ship Positions

Indonesian Bulker

Last reported at 2017-Oct-01 11:20 UTC. Time now 2017-Oct-19 16:51 UTC.
Position N 46°12' W 125°40'.
Warning: this ship's position is 18 days out of date.

Length 180 m; draft 9.3 m.

Type: Cargo ship. MMSI: 356624000.

Date/timePositionNaut miles runAvg speedWind from/ knotsBaromVisibWave heightAir tempDewpointWater temp
2017-Oct-01 11:20N 46°12' W 125°40'411.3
2017-Oct-01 11:00N 46°12' W 125°34'611.5
2017-Oct-01 10:30N 46°12' W 125°26'611.5
2017-Oct-01 10:00N 46°12' W 125°18'611.6
2017-Oct-01 09:30N 46°12' W 125°09'611.7
2017-Oct-01 09:00N 46°12' W 125°01'612.0
2017-Oct-01 08:30N 46°12' W 124°52'611.8
2017-Oct-01 08:00N 46°11' W 124°44'611.5
2017-Oct-01 07:30N 46°12' W 124°35'611.3
2017-Oct-01 07:00N 46°12' W 124°27'611.2
2017-Oct-01 06:30N 46°12' W 124°19'612.1
2017-Oct-01 06:00N 46°13' W 124°10'612.5
2017-Oct-01 05:31N 46°16' W 124°02'612.6
2017-Oct-01 05:00N 46°12' W 123°55'510.1
2017-Oct-01 04:31N 46°12' W 123°48'5 9.5
2017-Oct-01 04:00N 46°15' W 123°42'1011.5
2017-Oct-01 03:08N 46°16' W 123°27'111.6
2017-Oct-01 03:01N 46°15' W 123°26'48 1.9
2017-Sep-30 01:59N 45°38' W 122°42'0 0.0
2017-Sep-30 01:29N 45°38' W 122°42'0 0.8
2017-Sep-30 01:00N 45°38' W 122°42'4 7.9
2017-Sep-30 00:30N 45°41' W 122°46'0 0.9
2017-Sep-29 23:59N 45°41' W 122°46'0 0.1
2017-Sep-29 23:23N 45°41' W 122°46'0 0.0
2017-Sep-29 22:59N 45°41' W 122°46'0 0.1
2017-Sep-29 22:29N 45°41' W 122°46'0 0.1
2017-Sep-29 21:59N 45°41' W 122°46'0 0.1
2017-Sep-29 21:29N 45°41' W 122°46'0 0.0
2017-Sep-29 20:59N 45°41' W 122°46'0 0.1
2017-Sep-29 20:29N 45°41' W 122°46'0 0.0
2017-Sep-29 19:59N 45°41' W 122°46'0 0.0
2017-Sep-29 19:29N 45°41' W 122°46'0 0.0
2017-Sep-29 18:59N 45°41' W 122°46'0 0.0
2017-Sep-29 18:29N 45°41' W 122°46'0 0.0
2017-Sep-29 17:59N 45°41' W 122°46'0 0.0
2017-Sep-29 17:29N 45°41' W 122°46'0 0.0
2017-Sep-29 16:59N 45°41' W 122°46'0 0.1
2017-Sep-29 16:29N 45°41' W 122°46'0 0.0
2017-Sep-29 15:59N 45°41' W 122°46'0 0.1
2017-Sep-29 15:29N 45°41' W 122°46'0 0.1
2017-Sep-29 14:59N 45°41' W 122°46'0 0.1
2017-Sep-29 14:29N 45°41' W 122°46'0 0.0
2017-Sep-29 13:59N 45°41' W 122°46'0 0.0
2017-Sep-29 13:29N 45°41' W 122°46'0 0.0
2017-Sep-29 12:59N 45°41' W 122°46'0 0.0
2017-Sep-29 12:29N 45°41' W 122°46'0 0.0
2017-Sep-29 11:59N 45°41' W 122°46'0 0.0
2017-Sep-29 11:29N 45°41' W 122°46'0 0.0
2017-Sep-29 10:59N 45°41' W 122°46'0 0.0
2017-Sep-29 10:29N 45°41' W 122°46'0 0.0
2017-Sep-29 09:59N 45°41' W 122°46'0 0.0
2017-Sep-29 09:29N 45°41' W 122°46'0 0.1
2017-Sep-29 08:59N 45°41' W 122°46'0 0.0
2017-Sep-29 08:29N 45°41' W 122°46'0 0.0
2017-Sep-29 07:59N 45°41' W 122°46'0 0.1
2017-Sep-29 07:23N 45°41' W 122°46'0 0.3
2017-Sep-29 06:59N 45°41' W 122°47'0 0.3
2017-Sep-29 06:29N 45°41' W 122°46'0 0.1
2017-Sep-29 05:59N 45°41' W 122°46'0 0.1
2017-Sep-29 04:23N 45°41' W 122°46'0 0.3
2017-Sep-29 03:56N 45°41' W 122°46'0 0.1
2017-Sep-29 03:29N 45°41' W 122°46'0 0.0
2017-Sep-29 02:35N 45°41' W 122°46'0 0.0
2017-Sep-29 02:29N 45°41' W 122°46'0 0.0
2017-Sep-29 01:59N 45°41' W 122°46'0 0.1
2017-Sep-29 01:29N 45°41' W 122°46'0 0.1
2017-Sep-29 00:59N 45°41' W 122°46'0 0.0
2017-Sep-29 00:29N 45°41' W 122°46'0 0.0
2017-Sep-28 23:59N 45°41' W 122°46'0 0.0
2017-Sep-28 23:23N 45°41' W 122°46'0 0.0
2017-Sep-28 22:59N 45°41' W 122°46'0 0.0
2017-Sep-28 22:29N 45°41' W 122°46'0 0.0
2017-Sep-28 21:53N 45°41' W 122°46'0 0.0
2017-Sep-28 21:29N 45°41' W 122°46'0 0.0
2017-Sep-28 20:59N 45°41' W 122°46'0 0.0
2017-Sep-28 20:29N 45°41' W 122°46'0 0.0
2017-Sep-28 19:17N 45°41' W 122°46'0 0.0
2017-Sep-28 18:59N 45°41' W 122°46'0 0.0
2017-Sep-28 18:08N 45°41' W 122°46'0 0.0
2017-Sep-28 17:47N 45°41' W 122°46'0 0.0
2017-Sep-28 17:23N 45°41' W 122°46'0 0.0
2017-Sep-28 16:53N 45°41' W 122°46'0 0.0
2017-Sep-28 16:29N 45°41' W 122°46'0 0.0
2017-Sep-28 15:59N 45°41' W 122°46'0 0.0
2017-Sep-28 15:11N 45°41' W 122°46'0 0.0
2017-Sep-28 14:41N 45°41' W 122°46'0 0.0
2017-Sep-28 14:23N 45°41' W 122°46'0 0.0
2017-Sep-28 13:59N 45°41' W 122°46'0 0.0
2017-Sep-28 13:29N 45°41' W 122°46'0 0.0
2017-Sep-28 12:59N 45°41' W 122°46'0 0.0
2017-Sep-28 12:29N 45°41' W 122°46'0 0.0
2017-Sep-28 11:47N 45°41' W 122°46'0 0.0
2017-Sep-28 11:29N 45°41' W 122°46'0 0.0
2017-Sep-28 10:59N 45°41' W 122°46'0 0.0
2017-Sep-28 10:29N 45°41' W 122°46'0 0.0
2017-Sep-28 09:59N 45°41' W 122°46'0 0.0
2017-Sep-28 09:23N 45°41' W 122°46'0 0.0
2017-Sep-28 08:59N 45°41' W 122°46'0 0.0
2017-Sep-28 08:23N 45°41' W 122°46'0 0.0
2017-Sep-28 07:23N 45°41' W 122°46'0 0.0
2017-Sep-28 06:53N 45°41' W 122°46'0 0.0
2017-Sep-28 06:29N 45°41' W 122°46'0 0.0
2017-Sep-28 05:59N 45°41' W 122°46'0 0.2
2017-Sep-28 05:26N 45°41' W 122°46'0 0.1
2017-Sep-28 04:59N 45°41' W 122°46'0 0.1
2017-Sep-28 04:29N 45°41' W 122°46'0 0.1
2017-Sep-28 03:59N 45°41' W 122°46'0 0.0
2017-Sep-28 03:23N 45°41' W 122°46'0 0.0
2017-Sep-28 02:29N 45°41' W 122°46'0 0.0
2017-Sep-28 01:53N 45°41' W 122°46'0 0.0
2017-Sep-28 01:29N 45°41' W 122°46'0 0.0
2017-Sep-28 00:53N 45°41' W 122°46'0 0.0
2017-Sep-28 00:23N 45°41' W 122°46'0 0.0
2017-Sep-27 23:59N 45°41' W 122°46'0 0.0
2017-Sep-27 23:29N 45°41' W 122°46'0 0.0
2017-Sep-27 22:53N 45°41' W 122°46'0 0.0
2017-Sep-27 22:29N 45°41' W 122°46'0 0.0
2017-Sep-27 21:53N 45°41' W 122°46'0 0.0
2017-Sep-27 21:23N 45°41' W 122°46'0 0.0
2017-Sep-27 20:59N 45°41' W 122°46'0 0.1
2017-Sep-27 20:29N 45°41' W 122°46'0 0.0
2017-Sep-27 19:35N 45°41' W 122°46'0 0.1
2017-Sep-27 19:17N 45°41' W 122°46'0 0.0
2017-Sep-27 18:53N 45°41' W 122°46'0 0.0
2017-Sep-27 18:17N 45°41' W 122°46'0 0.0
2017-Sep-27 17:59N 45°41' W 122°46'0 0.1
2017-Sep-27 17:29N 45°41' W 122°46'0 0.1
2017-Sep-27 16:59N 45°41' W 122°46'0 0.0
2017-Sep-27 16:29N 45°41' W 122°46'0 0.1
2017-Sep-27 15:59N 45°41' W 122°46'0 0.0
2017-Sep-27 15:29N 45°41' W 122°46'0 0.0
2017-Sep-27 14:59N 45°41' W 122°46'0 0.0
2017-Sep-27 14:29N 45°41' W 122°46'0 0.0
2017-Sep-27 13:47N 45°41' W 122°46'0 0.0
2017-Sep-27 13:29N 45°41' W 122°46'0 0.0
2017-Sep-27 12:53N 45°41' W 122°46'0 0.0
2017-Sep-27 12:20N 45°41' W 122°46'0 0.0
2017-Sep-27 11:59N 45°41' W 122°46'0 0.0
2017-Sep-27 11:29N 45°41' W 122°46'0 0.0
2017-Sep-27 10:35N 45°41' W 122°46'0 0.1
2017-Sep-27 10:29N 45°41' W 122°46'0 0.1
2017-Sep-27 09:53N 45°41' W 122°46'0 0.0
2017-Sep-27 09:23N 45°41' W 122°46'0 0.1
2017-Sep-27 08:59N 45°41' W 122°46'0 0.0
2017-Sep-27 08:23N 45°41' W 122°46'0 0.0
2017-Sep-27 07:53N 45°41' W 122°46'0 0.0
2017-Sep-27 07:29N 45°41' W 122°46'0 0.0
2017-Sep-27 06:41N 45°41' W 122°46'0 0.0
2017-Sep-27 06:26N 45°41' W 122°46'0 0.1
2017-Sep-27 05:53N 45°41' W 122°46'0 0.4
2017-Sep-27 05:29N 45°41' W 122°46'0 0.2
2017-Sep-27 04:59N 45°41' W 122°46'0 0.0
2017-Sep-27 04:29N 45°41' W 122°46'0 0.0
2017-Sep-27 03:59N 45°41' W 122°46'0 0.0
2017-Sep-27 03:29N 45°41' W 122°46'0 0.0
2017-Sep-27 02:53N 45°41' W 122°46'0 0.0
2017-Sep-27 02:29N 45°41' W 122°46'0 0.2
2017-Sep-27 01:59N 45°41' W 122°46'0 0.2
2017-Sep-27 01:29N 45°41' W 122°46'0 0.1
2017-Sep-27 00:41N 45°41' W 122°46'0 0.1
2017-Sep-27 00:23N 45°41' W 122°46'0 0.0
2017-Sep-26 23:59N 45°41' W 122°46'0 0.0
2017-Sep-26 22:47N 45°41' W 122°46'0 0.0
2017-Sep-26 22:29N 45°41' W 122°46'0 0.0
2017-Sep-26 21:53N 45°41' W 122°46'0 0.0
2017-Sep-26 21:29N 45°41' W 122°46'0 0.0
2017-Sep-26 20:53N 45°41' W 122°46'0 0.0
2017-Sep-26 20:11N 45°41' W 122°46'0 0.1
2017-Sep-26 19:41N 45°41' W 122°46'0 0.0
2017-Sep-26 19:23N 45°41' W 122°46'0 0.0
2017-Sep-26 18:41N 45°41' W 122°46'0 0.0
2017-Sep-26 18:29N 45°41' W 122°46'0 0.3
2017-Sep-26 17:59N 45°41' W 122°46'0 0.1
2017-Sep-26 17:17N 45°41' W 122°46'0 0.0
2017-Sep-26 16:53N 45°41' W 122°46'0 0.1
2017-Sep-26 16:29N 45°41' W 122°46'0 0.1
2017-Sep-26 15:59N 45°41' W 122°46'0 0.2
2017-Sep-26 15:29N 45°41' W 122°46'0 0.2
2017-Sep-26 14:59N 45°41' W 122°46'0 0.1
2017-Sep-26 14:29N 45°41' W 122°46'0 0.0
2017-Sep-26 13:35N 45°41' W 122°46'0 0.0
2017-Sep-26 13:17N 45°41' W 122°46'0 0.0
2017-Sep-26 12:59N 45°41' W 122°46'0 0.0
2017-Sep-26 12:29N 45°41' W 122°46'0 0.0
2017-Sep-26 11:17N 45°41' W 122°46'0 0.0
2017-Sep-26 10:59N 45°41' W 122°46'0 0.0
2017-Sep-26 10:11N 45°41' W 122°46'0 0.0
2017-Sep-26 09:53N 45°41' W 122°46'0 0.0
2017-Sep-26 09:29N 45°41' W 122°46'0 0.1
2017-Sep-26 08:56N 45°41' W 122°46'0 0.1
2017-Sep-26 08:11N 45°41' W 122°46'0 0.0
2017-Sep-26 07:47N 45°41' W 122°46'0 0.0
2017-Sep-26 07:29N 45°41' W 122°46'0 0.0
2017-Sep-26 06:59N 45°41' W 122°46'0 0.0
2017-Sep-26 06:29N 45°41' W 122°46'0 0.0
2017-Sep-26 05:59N 45°41' W 122°46'0 0.1
2017-Sep-26 05:23N 45°41' W 122°46'0 0.3
2017-Sep-26 04:59N 45°41' W 122°46'0 0.0
2017-Sep-26 04:11N 45°41' W 122°46'0 0.1
2017-Sep-26 03:41N 45°41' W 122°46'0 0.0
2017-Sep-26 03:29N 45°41' W 122°46'0 0.0
2017-Sep-26 02:53N 45°41' W 122°46'0 0.0
2017-Sep-26 02:29N 45°41' W 122°46'0 0.0
2017-Sep-26 01:59N 45°41' W 122°46'0 0.3
2017-Sep-26 01:29N 45°41' W 122°46'0 0.2
2017-Sep-26 00:59N 45°41' W 122°46'0 0.0
2017-Sep-26 00:17N 45°41' W 122°46'0 0.1
2017-Sep-25 23:59N 45°41' W 122°46'0 0.0
2017-Sep-25 23:05N 45°41' W 122°46'0 0.0
2017-Sep-25 22:47N 45°41' W 122°46'0 0.0
2017-Sep-25 21:53N 45°41' W 122°46'0 0.0
2017-Sep-25 21:23N 45°41' W 122°46'0 0.0
2017-Sep-25 20:53N 45°41' W 122°46'0 0.0
2017-Sep-25 20:11N 45°41' W 122°46'0 0.0
2017-Sep-25 19:53N 45°41' W 122°46'0 0.0
2017-Sep-25 19:29N 45°41' W 122°46'0 0.0
2017-Sep-25 18:59N 45°41' W 122°46'0 0.0
2017-Sep-25 18:29N 45°41' W 122°46'0 0.0
2017-Sep-25 17:59N 45°41' W 122°46'0 0.2
2017-Sep-25 17:30N 45°41' W 122°46'0 0.3
2017-Sep-25 17:00N 45°41' W 122°46'0 0.1
2017-Sep-25 16:30N 45°41' W 122°46'0 0.0
2017-Sep-25 16:00N 45°41' W 122°46'0 0.2
2017-Sep-25 15:30N 45°41' W 122°46'0 0.1
2017-Sep-25 15:00N 45°41' W 122°46'0 0.1
2017-Sep-25 14:30N 45°41' W 122°46'0 0.0
2017-Sep-25 14:00N 45°41' W 122°46'0 0.1
2017-Sep-25 13:30N 45°41' W 122°46'0 0.0
2017-Sep-25 13:00N 45°41' W 122°46'0 0.1
2017-Sep-25 12:30N 45°41' W 122°46'0 0.0
2017-Sep-25 12:00N 45°41' W 122°46'0 0.0
2017-Sep-25 11:30N 45°41' W 122°46'0 0.0
2017-Sep-25 11:00N 45°41' W 122°46'0 0.0
2017-Sep-25 10:30N 45°41' W 122°46'0 0.0
2017-Sep-25 10:00N 45°41' W 122°46'0 0.0
2017-Sep-25 09:30N 45°41' W 122°46'0 0.0
2017-Sep-25 09:00N 45°41' W 122°46'0 0.0
2017-Sep-25 08:30N 45°41' W 122°46'0 0.0
2017-Sep-25 08:00N 45°41' W 122°46'0 0.0
2017-Sep-25 07:30N 45°41' W 122°46'0 0.0
2017-Sep-25 07:00N 45°41' W 122°46'0 0.0
2017-Sep-25 06:30N 45°41' W 122°46'0 0.0
2017-Sep-25 06:01N 45°41' W 122°46'0 0.0
2017-Sep-25 05:30N 45°41' W 122°46'0 0.0
2017-Sep-25 05:00N 45°41' W 122°46'0 0.3
2017-Sep-25 04:30N 45°41' W 122°46'0 0.1
2017-Sep-25 04:00N 45°41' W 122°46'0 0.0
2017-Sep-25 03:30N 45°41' W 122°46'0 0.0
2017-Sep-25 03:00N 45°41' W 122°46'0 0.0
2017-Sep-25 02:14N 45°41' W 122°46'0 0.0
2017-Sep-25 01:59N 45°41' W 122°46'0 0.0
2017-Sep-25 01:28N 45°41' W 122°46'0 0.2
2017-Sep-25 01:00N 45°41' W 122°46'0 0.2
2017-Sep-25 00:30N 45°41' W 122°46'0 0.0
2017-Sep-25 00:00N 45°41' W 122°46'0 0.1
2017-Sep-24 23:30N 45°41' W 122°46'0 0.0
2017-Sep-24 23:00N 45°41' W 122°46'0 0.0
2017-Sep-24 22:30N 45°41' W 122°46'0 0.0
2017-Sep-24 22:00N 45°41' W 122°46'0 0.0
2017-Sep-24 21:30N 45°41' W 122°46'0 0.0
2017-Sep-24 21:00N 45°41' W 122°46'1 2.8
2017-Sep-24 20:30N 45°43' W 122°46'611.5
2017-Sep-24 20:00N 45°48' W 122°47'711.9
2017-Sep-24 19:24N 45°55' W 122°48'411.5
2017-Sep-24 19:00N 45°60' W 122°51'510.7
2017-Sep-24 18:30N 46°05' W 122°54'510.7
2017-Sep-24 18:00N 46°08' W 122°60'612.3
2017-Sep-24 17:30N 46°11' W 123°07'611.9
2017-Sep-24 17:00N 46°09' W 123°15'611.4
2017-Sep-24 16:30N 46°09' W 123°24'510.5
2017-Sep-24 16:01N 46°14' W 123°26'510.8
2017-Sep-24 15:30N 46°15' W 123°33'612.0
2017-Sep-24 15:00N 46°15' W 123°42'510.7
2017-Sep-24 14:30N 46°12' W 123°49'5 9.1
2017-Sep-24 14:00N 46°11' W 123°55'611.8
2017-Sep-24 13:30N 46°15' W 124°02'612.0
2017-Sep-24 13:00N 46°13' W 124°10'710.0
2017-Sep-24 12:18N 46°13' W 124°20'311.2
2017-Sep-24 12:01N 46°15' W 124°24'713.5
2017-Sep-24 11:30N 46°21' W 124°28'713.9
2017-Sep-24 11:01N 46°27' W 124°32'714.6
2017-Sep-24 10:31N 46°34' W 124°37'611.5
2017-Sep-24 10:01N 46°39' W 124°40'612.0
2017-Sep-24 09:30N 46°45' W 124°43'714.4
2017-Sep-24 09:00N 46°51' W 124°48'714.9
2017-Sep-24 08:30N 46°58' W 124°53'6814.2
2017-Sep-24 03:44N 48°03' W 125°20'515.0
2017-Sep-24 03:26N 48°07' W 125°19'715.6
2017-Sep-24 03:00N 48°14' W 125°17'814.7
2017-Sep-24 02:27N 48°21' W 125°11'614.2
2017-Sep-24 02:00N 48°26' W 125°06'713.4
2017-Sep-24 01:30N 48°31' W 124°58'714.4
2017-Sep-24 01:00N 48°31' W 124°47'714.5
2017-Sep-24 00:30N 48°28' W 124°37'714.1
2017-Sep-24 00:00N 48°26' W 124°27'713.6
2017-Sep-23 23:30N 48°23' W 124°18'713.4
2017-Sep-23 23:00N 48°21' W 124°08'714.0
2017-Sep-23 22:30N 48°18' W 123°58'714.1
2017-Sep-23 22:01N 48°17' W 123°48'815.4
2017-Sep-23 21:30N 48°16' W 123°36'612.8
2017-Sep-23 21:00N 48°19' W 123°28'611.9
2017-Sep-23 20:30N 48°23' W 123°22'612.6
2017-Sep-23 20:00N 48°25' W 123°13'54 1.3
2017-Sep-22 01:58N 49°18' W 123°12'0 0.1
2017-Sep-22 01:28N 49°18' W 123°12'0 0.1
2017-Sep-22 00:58N 49°18' W 123°12'0 0.0
2017-Sep-22 00:28N 49°18' W 123°12'0 0.0
2017-Sep-21 23:58N 49°18' W 123°12'0 0.1
2017-Sep-21 23:28N 49°18' W 123°12'0 0.0
2017-Sep-21 22:58N 49°18' W 123°12'0 0.0
2017-Sep-21 22:28N 49°18' W 123°12'0 0.0
2017-Sep-21 21:58N 49°18' W 123°12'0 0.1
2017-Sep-21 21:28N 49°18' W 123°12'0 0.1
2017-Sep-21 20:58N 49°18' W 123°12'0 0.0
2017-Sep-21 20:28N 49°18' W 123°12'0 0.0
2017-Sep-21 19:58N 49°18' W 123°12'0 0.0
2017-Sep-21 19:25N 49°18' W 123°12'0 0.0
2017-Sep-21 18:58N 49°18' W 123°12'0 0.0
2017-Sep-21 18:28N 49°18' W 123°12'0 0.1
2017-Sep-21 17:58N 49°18' W 123°12'0 0.0
2017-Sep-21 17:28N 49°18' W 123°12'0 0.1
2017-Sep-21 16:55N 49°18' W 123°12'0 0.1
2017-Sep-21 16:28N 49°18' W 123°12'0 0.0
2017-Sep-21 15:55N 49°18' W 123°12'0 0.1
2017-Sep-21 15:28N 49°18' W 123°12'0 0.1
2017-Sep-21 14:58N 49°18' W 123°12'0 0.1
2017-Sep-21 14:28N 49°18' W 123°12'0 0.2
2017-Sep-21 13:58N 49°18' W 123°12'0 0.0
2017-Sep-21 13:28N 49°18' W 123°12'0 0.1
2017-Sep-21 12:58N 49°18' W 123°12'0 0.0
2017-Sep-21 12:28N 49°18' W 123°12'0 0.1
2017-Sep-21 11:55N 49°18' W 123°12'0 0.0
2017-Sep-21 11:28N 49°18' W 123°12'  
Track history (hours):
 
Tides and Currents Weather Stations Pressure Air Temp Water Temp Dewpoint Dewpoint Depression Visibility Wind Speed Wind Dir Waves Ship Positions

Indonesian Bulker

Last reported at 2017-Oct-01 11:20 UTC. Time now 2017-Oct-19 16:51 UTC.
Position N 46°12' W 125°40'.
Warning: this ship's position is 18 days out of date.

Length 180 m; draft 9.3 m.

Type: Cargo ship. MMSI: 356624000.

Date/timePositionNaut miles runAvg speedWind from/ knotsBaromVisibWave heightAir tempDewpointWater temp
2017-Oct-01 11:20N 46°12' W 125°40'411.3
2017-Oct-01 11:00N 46°12' W 125°34'611.5
2017-Oct-01 10:30N 46°12' W 125°26'611.5
2017-Oct-01 10:00N 46°12' W 125°18'611.6
2017-Oct-01 09:30N 46°12' W 125°09'611.7
2017-Oct-01 09:00N 46°12' W 125°01'612.0
2017-Oct-01 08:30N 46°12' W 124°52'611.8
2017-Oct-01 08:00N 46°11' W 124°44'611.5
2017-Oct-01 07:30N 46°12' W 124°35'611.3
2017-Oct-01 07:00N 46°12' W 124°27'611.2
2017-Oct-01 06:30N 46°12' W 124°19'612.1
2017-Oct-01 06:00N 46°13' W 124°10'612.5
2017-Oct-01 05:31N 46°16' W 124°02'612.6
2017-Oct-01 05:00N 46°12' W 123°55'510.1
2017-Oct-01 04:31N 46°12' W 123°48'5 9.5
2017-Oct-01 04:00N 46°15' W 123°42'1011.5
2017-Oct-01 03:08N 46°16' W 123°27'111.6
2017-Oct-01 03:01N 46°15' W 123°26'48 1.9
2017-Sep-30 01:59N 45°38' W 122°42'0 0.0
2017-Sep-30 01:29N 45°38' W 122°42'0 0.8
2017-Sep-30 01:00N 45°38' W 122°42'4 7.9
2017-Sep-30 00:30N 45°41' W 122°46'0 0.9
2017-Sep-29 23:59N 45°41' W 122°46'0 0.1
2017-Sep-29 23:23N 45°41' W 122°46'0 0.0
2017-Sep-29 22:59N 45°41' W 122°46'0 0.1
2017-Sep-29 22:29N 45°41' W 122°46'0 0.1
2017-Sep-29 21:59N 45°41' W 122°46'0 0.1
2017-Sep-29 21:29N 45°41' W 122°46'0 0.0
2017-Sep-29 20:59N 45°41' W 122°46'0 0.1
2017-Sep-29 20:29N 45°41' W 122°46'0 0.0
2017-Sep-29 19:59N 45°41' W 122°46'0 0.0
2017-Sep-29 19:29N 45°41' W 122°46'0 0.0
2017-Sep-29 18:59N 45°41' W 122°46'0 0.0
2017-Sep-29 18:29N 45°41' W 122°46'0 0.0
2017-Sep-29 17:59N 45°41' W 122°46'0 0.0
2017-Sep-29 17:29N 45°41' W 122°46'0 0.0
2017-Sep-29 16:59N 45°41' W 122°46'0 0.1
2017-Sep-29 16:29N 45°41' W 122°46'0 0.0
2017-Sep-29 15:59N 45°41' W 122°46'0 0.1
2017-Sep-29 15:29N 45°41' W 122°46'0 0.1
2017-Sep-29 14:59N 45°41' W 122°46'0 0.1
2017-Sep-29 14:29N 45°41' W 122°46'0 0.0
2017-Sep-29 13:59N 45°41' W 122°46'0 0.0
2017-Sep-29 13:29N 45°41' W 122°46'0 0.0
2017-Sep-29 12:59N 45°41' W 122°46'0 0.0
2017-Sep-29 12:29N 45°41' W 122°46'0 0.0
2017-Sep-29 11:59N 45°41' W 122°46'0 0.0
2017-Sep-29 11:29N 45°41' W 122°46'0 0.0
2017-Sep-29 10:59N 45°41' W 122°46'0 0.0
2017-Sep-29 10:29N 45°41' W 122°46'0 0.0
2017-Sep-29 09:59N 45°41' W 122°46'0 0.0
2017-Sep-29 09:29N 45°41' W 122°46'0 0.1
2017-Sep-29 08:59N 45°41' W 122°46'0 0.0
2017-Sep-29 08:29N 45°41' W 122°46'0 0.0
2017-Sep-29 07:59N 45°41' W 122°46'0 0.1
2017-Sep-29 07:23N 45°41' W 122°46'0 0.3
2017-Sep-29 06:59N 45°41' W 122°47'0 0.3
2017-Sep-29 06:29N 45°41' W 122°46'0 0.1
2017-Sep-29 05:59N 45°41' W 122°46'0 0.1
2017-Sep-29 04:23N 45°41' W 122°46'0 0.3
2017-Sep-29 03:56N 45°41' W 122°46'0 0.1
2017-Sep-29 03:29N 45°41' W 122°46'0 0.0
2017-Sep-29 02:35N 45°41' W 122°46'0 0.0
2017-Sep-29 02:29N 45°41' W 122°46'0 0.0
2017-Sep-29 01:59N 45°41' W 122°46'0 0.1
2017-Sep-29 01:29N 45°41' W 122°46'0 0.1
2017-Sep-29 00:59N 45°41' W 122°46'0 0.0
2017-Sep-29 00:29N 45°41' W 122°46'0 0.0
2017-Sep-28 23:59N 45°41' W 122°46'0 0.0
2017-Sep-28 23:23N 45°41' W 122°46'0 0.0
2017-Sep-28 22:59N 45°41' W 122°46'0 0.0
2017-Sep-28 22:29N 45°41' W 122°46'0 0.0
2017-Sep-28 21:53N 45°41' W 122°46'0 0.0
2017-Sep-28 21:29N 45°41' W 122°46'0 0.0
2017-Sep-28 20:59N 45°41' W 122°46'0 0.0
2017-Sep-28 20:29N 45°41' W 122°46'0 0.0
2017-Sep-28 19:17N 45°41' W 122°46'0 0.0
2017-Sep-28 18:59N 45°41' W 122°46'0 0.0
2017-Sep-28 18:08N 45°41' W 122°46'0 0.0
2017-Sep-28 17:47N 45°41' W 122°46'0 0.0
2017-Sep-28 17:23N 45°41' W 122°46'0 0.0
2017-Sep-28 16:53N 45°41' W 122°46'0 0.0
2017-Sep-28 16:29N 45°41' W 122°46'0 0.0
2017-Sep-28 15:59N 45°41' W 122°46'0 0.0
2017-Sep-28 15:11N 45°41' W 122°46'0 0.0
2017-Sep-28 14:41N 45°41' W 122°46'0 0.0
2017-Sep-28 14:23N 45°41' W 122°46'0 0.0
2017-Sep-28 13:59N 45°41' W 122°46'0 0.0
2017-Sep-28 13:29N 45°41' W 122°46'0 0.0
2017-Sep-28 12:59N 45°41' W 122°46'0 0.0
2017-Sep-28 12:29N 45°41' W 122°46'0 0.0
2017-Sep-28 11:47N 45°41' W 122°46'0 0.0
2017-Sep-28 11:29N 45°41' W 122°46'0 0.0
2017-Sep-28 10:59N 45°41' W 122°46'0 0.0
2017-Sep-28 10:29N 45°41' W 122°46'0 0.0
2017-Sep-28 09:59N 45°41' W 122°46'0 0.0
2017-Sep-28 09:23N 45°41' W 122°46'0 0.0
2017-Sep-28 08:59N 45°41' W 122°46'0 0.0
2017-Sep-28 08:23N 45°41' W 122°46'0 0.0
2017-Sep-28 07:23N 45°41' W 122°46'0 0.0
2017-Sep-28 06:53N 45°41' W 122°46'0 0.0
2017-Sep-28 06:29N 45°41' W 122°46'0 0.0
2017-Sep-28 05:59N 45°41' W 122°46'0 0.2
2017-Sep-28 05:26N 45°41' W 122°46'0 0.1
2017-Sep-28 04:59N 45°41' W 122°46'0 0.1
2017-Sep-28 04:29N 45°41' W 122°46'0 0.1
2017-Sep-28 03:59N 45°41' W 122°46'0 0.0
2017-Sep-28 03:23N 45°41' W 122°46'0 0.0
2017-Sep-28 02:29N 45°41' W 122°46'0 0.0
2017-Sep-28 01:53N 45°41' W 122°46'0 0.0
2017-Sep-28 01:29N 45°41' W 122°46'0 0.0
2017-Sep-28 00:53N 45°41' W 122°46'0 0.0
2017-Sep-28 00:23N 45°41' W 122°46'0 0.0
2017-Sep-27 23:59N 45°41' W 122°46'0 0.0
2017-Sep-27 23:29N 45°41' W 122°46'0 0.0
2017-Sep-27 22:53N 45°41' W 122°46'0 0.0
2017-Sep-27 22:29N 45°41' W 122°46'0 0.0
2017-Sep-27 21:53N 45°41' W 122°46'0 0.0
2017-Sep-27 21:23N 45°41' W 122°46'0 0.0
2017-Sep-27 20:59N 45°41' W 122°46'0 0.1
2017-Sep-27 20:29N 45°41' W 122°46'0 0.0
2017-Sep-27 19:35N 45°41' W 122°46'0 0.1
2017-Sep-27 19:17N 45°41' W 122°46'0 0.0
2017-Sep-27 18:53N 45°41' W 122°46'0 0.0
2017-Sep-27 18:17N 45°41' W 122°46'0 0.0
2017-Sep-27 17:59N 45°41' W 122°46'0 0.1
2017-Sep-27 17:29N 45°41' W 122°46'0 0.1
2017-Sep-27 16:59N 45°41' W 122°46'0 0.0
2017-Sep-27 16:29N 45°41' W 122°46'0 0.1
2017-Sep-27 15:59N 45°41' W 122°46'0 0.0
2017-Sep-27 15:29N 45°41' W 122°46'0 0.0
2017-Sep-27 14:59N 45°41' W 122°46'0 0.0
2017-Sep-27 14:29N 45°41' W 122°46'0 0.0
2017-Sep-27 13:47N 45°41' W 122°46'0 0.0
2017-Sep-27 13:29N 45°41' W 122°46'0 0.0
2017-Sep-27 12:53N 45°41' W 122°46'0 0.0
2017-Sep-27 12:20N 45°41' W 122°46'0 0.0
2017-Sep-27 11:59N 45°41' W 122°46'0 0.0
2017-Sep-27 11:29N 45°41' W 122°46'0 0.0
2017-Sep-27 10:35N 45°41' W 122°46'0 0.1
2017-Sep-27 10:29N 45°41' W 122°46'0 0.1
2017-Sep-27 09:53N 45°41' W 122°46'0 0.0
2017-Sep-27 09:23N 45°41' W 122°46'0 0.1
2017-Sep-27 08:59N 45°41' W 122°46'0 0.0
2017-Sep-27 08:23N 45°41' W 122°46'0 0.0
2017-Sep-27 07:53N 45°41' W 122°46'0 0.0
2017-Sep-27 07:29N 45°41' W 122°46'0 0.0
2017-Sep-27 06:41N 45°41' W 122°46'0 0.0
2017-Sep-27 06:26N 45°41' W 122°46'0 0.1
2017-Sep-27 05:53N 45°41' W 122°46'0 0.4
2017-Sep-27 05:29N 45°41' W 122°46'0 0.2
2017-Sep-27 04:59N 45°41' W 122°46'0 0.0
2017-Sep-27 04:29N 45°41' W 122°46'0 0.0
2017-Sep-27 03:59N 45°41' W 122°46'0 0.0
2017-Sep-27 03:29N 45°41' W 122°46'0 0.0
2017-Sep-27 02:53N 45°41' W 122°46'0 0.0
2017-Sep-27 02:29N 45°41' W 122°46'0 0.2
2017-Sep-27 01:59N 45°41' W 122°46'0 0.2
2017-Sep-27 01:29N 45°41' W 122°46'0 0.1
2017-Sep-27 00:41N 45°41' W 122°46'0 0.1
2017-Sep-27 00:23N 45°41' W 122°46'0 0.0
2017-Sep-26 23:59N 45°41' W 122°46'0 0.0
2017-Sep-26 22:47N 45°41' W 122°46'0 0.0
2017-Sep-26 22:29N 45°41' W 122°46'0 0.0
2017-Sep-26 21:53N 45°41' W 122°46'0 0.0
2017-Sep-26 21:29N 45°41' W 122°46'0 0.0
2017-Sep-26 20:53N 45°41' W 122°46'0 0.0
2017-Sep-26 20:11N 45°41' W 122°46'0 0.1
2017-Sep-26 19:41N 45°41' W 122°46'0 0.0
2017-Sep-26 19:23N 45°41' W 122°46'0 0.0
2017-Sep-26 18:41N 45°41' W 122°46'0 0.0
2017-Sep-26 18:29N 45°41' W 122°46'0 0.3
2017-Sep-26 17:59N 45°41' W 122°46'0 0.1
2017-Sep-26 17:17N 45°41' W 122°46'0 0.0
2017-Sep-26 16:53N 45°41' W 122°46'0 0.1
2017-Sep-26 16:29N 45°41' W 122°46'0 0.1
2017-Sep-26 15:59N 45°41' W 122°46'0 0.2
2017-Sep-26 15:29N 45°41' W 122°46'0 0.2
2017-Sep-26 14:59N 45°41' W 122°46'0 0.1
2017-Sep-26 14:29N 45°41' W 122°46'0 0.0
2017-Sep-26 13:35N 45°41' W 122°46'0 0.0
2017-Sep-26 13:17N 45°41' W 122°46'0 0.0
2017-Sep-26 12:59N 45°41' W 122°46'0 0.0
2017-Sep-26 12:29N 45°41' W 122°46'0 0.0
2017-Sep-26 11:17N 45°41' W 122°46'0 0.0
2017-Sep-26 10:59N 45°41' W 122°46'0 0.0
2017-Sep-26 10:11N 45°41' W 122°46'0 0.0
2017-Sep-26 09:53N 45°41' W 122°46'0 0.0
2017-Sep-26 09:29N 45°41' W 122°46'0 0.1
2017-Sep-26 08:56N 45°41' W 122°46'0 0.1
2017-Sep-26 08:11N 45°41' W 122°46'0 0.0
2017-Sep-26 07:47N 45°41' W 122°46'0 0.0
2017-Sep-26 07:29N 45°41' W 122°46'0 0.0
2017-Sep-26 06:59N 45°41' W 122°46'0 0.0
2017-Sep-26 06:29N 45°41' W 122°46'0 0.0
2017-Sep-26 05:59N 45°41' W 122°46'0 0.1
2017-Sep-26 05:23N 45°41' W 122°46'0 0.3
2017-Sep-26 04:59N 45°41' W 122°46'0 0.0
2017-Sep-26 04:11N 45°41' W 122°46'0 0.1
2017-Sep-26 03:41N 45°41' W 122°46'0 0.0
2017-Sep-26 03:29N 45°41' W 122°46'0 0.0
2017-Sep-26 02:53N 45°41' W 122°46'0 0.0
2017-Sep-26 02:29N 45°41' W 122°46'0 0.0
2017-Sep-26 01:59N 45°41' W 122°46'0 0.3
2017-Sep-26 01:29N 45°41' W 122°46'0 0.2
2017-Sep-26 00:59N 45°41' W 122°46'0 0.0
2017-Sep-26 00:17N 45°41' W 122°46'0 0.1
2017-Sep-25 23:59N 45°41' W 122°46'0 0.0
2017-Sep-25 23:05N 45°41' W 122°46'0 0.0
2017-Sep-25 22:47N 45°41' W 122°46'0 0.0
2017-Sep-25 21:53N 45°41' W 122°46'0 0.0
2017-Sep-25 21:23N 45°41' W 122°46'0 0.0
2017-Sep-25 20:53N 45°41' W 122°46'0 0.0
2017-Sep-25 20:11N 45°41' W 122°46'0 0.0
2017-Sep-25 19:53N 45°41' W 122°46'0 0.0
2017-Sep-25 19:29N 45°41' W 122°46'0 0.0
2017-Sep-25 18:59N 45°41' W 122°46'0 0.0
2017-Sep-25 18:29N 45°41' W 122°46'0 0.0
2017-Sep-25 17:59N 45°41' W 122°46'0 0.2
2017-Sep-25 17:30N 45°41' W 122°46'0 0.3
2017-Sep-25 17:00N 45°41' W 122°46'0 0.1
2017-Sep-25 16:30N 45°41' W 122°46'0 0.0
2017-Sep-25 16:00N 45°41' W 122°46'0 0.2
2017-Sep-25 15:30N 45°41' W 122°46'0 0.1
2017-Sep-25 15:00N 45°41' W 122°46'0 0.1
2017-Sep-25 14:30N 45°41' W 122°46'0 0.0
2017-Sep-25 14:00N 45°41' W 122°46'0 0.1
2017-Sep-25 13:30N 45°41' W 122°46'0 0.0
2017-Sep-25 13:00N 45°41' W 122°46'0 0.1
2017-Sep-25 12:30N 45°41' W 122°46'0 0.0
2017-Sep-25 12:00N 45°41' W 122°46'0 0.0
2017-Sep-25 11:30N 45°41' W 122°46'0 0.0
2017-Sep-25 11:00N 45°41' W 122°46'0 0.0
2017-Sep-25 10:30N 45°41' W 122°46'0 0.0
2017-Sep-25 10:00N 45°41' W 122°46'0 0.0
2017-Sep-25 09:30N 45°41' W 122°46'0 0.0
2017-Sep-25 09:00N 45°41' W 122°46'0 0.0
2017-Sep-25 08:30N 45°41' W 122°46'0 0.0
2017-Sep-25 08:00N 45°41' W 122°46'0 0.0
2017-Sep-25 07:30N 45°41' W 122°46'0 0.0
2017-Sep-25 07:00N 45°41' W 122°46'0 0.0
2017-Sep-25 06:30N 45°41' W 122°46'0 0.0
2017-Sep-25 06:01N 45°41' W 122°46'0 0.0
2017-Sep-25 05:30N 45°41' W 122°46'0 0.0
2017-Sep-25 05:00N 45°41' W 122°46'0 0.3
2017-Sep-25 04:30N 45°41' W 122°46'0 0.1
2017-Sep-25 04:00N 45°41' W 122°46'0 0.0
2017-Sep-25 03:30N 45°41' W 122°46'0 0.0
2017-Sep-25 03:00N 45°41' W 122°46'0 0.0
2017-Sep-25 02:14N 45°41' W 122°46'0 0.0
2017-Sep-25 01:59N 45°41' W 122°46'0 0.0
2017-Sep-25 01:28N 45°41' W 122°46'0 0.2
2017-Sep-25 01:00N 45°41' W 122°46'0 0.2
2017-Sep-25 00:30N 45°41' W 122°46'0 0.0
2017-Sep-25 00:00N 45°41' W 122°46'0 0.1
2017-Sep-24 23:30N 45°41' W 122°46'0 0.0
2017-Sep-24 23:00N 45°41' W 122°46'0 0.0
2017-Sep-24 22:30N 45°41' W 122°46'0 0.0
2017-Sep-24 22:00N 45°41' W 122°46'0 0.0
2017-Sep-24 21:30N 45°41' W 122°46'0 0.0
2017-Sep-24 21:00N 45°41' W 122°46'1 2.8
2017-Sep-24 20:30N 45°43' W 122°46'611.5
2017-Sep-24 20:00N 45°48' W 122°47'711.9
2017-Sep-24 19:24N 45°55' W 122°48'411.5
2017-Sep-24 19:00N 45°60' W 122°51'510.7
2017-Sep-24 18:30N 46°05' W 122°54'510.7
2017-Sep-24 18:00N 46°08' W 122°60'612.3
2017-Sep-24 17:30N 46°11' W 123°07'611.9
2017-Sep-24 17:00N 46°09' W 123°15'611.4
2017-Sep-24 16:30N 46°09' W 123°24'510.5
2017-Sep-24 16:01N 46°14' W 123°26'510.8
2017-Sep-24 15:30N 46°15' W 123°33'612.0
2017-Sep-24 15:00N 46°15' W 123°42'510.7
2017-Sep-24 14:30N 46°12' W 123°49'5 9.1
2017-Sep-24 14:00N 46°11' W 123°55'611.8
2017-Sep-24 13:30N 46°15' W 124°02'612.0
2017-Sep-24 13:00N 46°13' W 124°10'710.0
2017-Sep-24 12:18N 46°13' W 124°20'311.2
2017-Sep-24 12:01N 46°15' W 124°24'713.5
2017-Sep-24 11:30N 46°21' W 124°28'713.9
2017-Sep-24 11:01N 46°27' W 124°32'714.6
2017-Sep-24 10:31N 46°34' W 124°37'611.5
2017-Sep-24 10:01N 46°39' W 124°40'612.0
2017-Sep-24 09:30N 46°45' W 124°43'714.4
2017-Sep-24 09:00N 46°51' W 124°48'714.9
2017-Sep-24 08:30N 46°58' W 124°53'6814.2
2017-Sep-24 03:44N 48°03' W 125°20'515.0
2017-Sep-24 03:26N 48°07' W 125°19'715.6
2017-Sep-24 03:00N 48°14' W 125°17'814.7
2017-Sep-24 02:27N 48°21' W 125°11'614.2
2017-Sep-24 02:00N 48°26' W 125°06'713.4
2017-Sep-24 01:30N 48°31' W 124°58'714.4
2017-Sep-24 01:00N 48°31' W 124°47'714.5
2017-Sep-24 00:30N 48°28' W 124°37'714.1
2017-Sep-24 00:00N 48°26' W 124°27'713.6
2017-Sep-23 23:30N 48°23' W 124°18'713.4
2017-Sep-23 23:00N 48°21' W 124°08'714.0
2017-Sep-23 22:30N 48°18' W 123°58'714.1
2017-Sep-23 22:01N 48°17' W 123°48'815.4
2017-Sep-23 21:30N 48°16' W 123°36'612.8
2017-Sep-23 21:00N 48°19' W 123°28'611.9
2017-Sep-23 20:30N 48°23' W 123°22'612.6
2017-Sep-23 20:00N 48°25' W 123°13'54 1.3
2017-Sep-22 01:58N 49°18' W 123°12'0 0.1
2017-Sep-22 01:28N 49°18' W 123°12'0 0.1
2017-Sep-22 00:58N 49°18' W 123°12'0 0.0
2017-Sep-22 00:28N 49°18' W 123°12'0 0.0
2017-Sep-21 23:58N 49°18' W 123°12'0 0.1
2017-Sep-21 23:28N 49°18' W 123°12'0 0.0
2017-Sep-21 22:58N 49°18' W 123°12'0 0.0
2017-Sep-21 22:28N 49°18' W 123°12'0 0.0
2017-Sep-21 21:58N 49°18' W 123°12'0 0.1
2017-Sep-21 21:28N 49°18' W 123°12'0 0.1
2017-Sep-21 20:58N 49°18' W 123°12'0 0.0
2017-Sep-21 20:28N 49°18' W 123°12'0 0.0
2017-Sep-21 19:58N 49°18' W 123°12'0 0.0
2017-Sep-21 19:25N 49°18' W 123°12'0 0.0
2017-Sep-21 18:58N 49°18' W 123°12'0 0.0
2017-Sep-21 18:28N 49°18' W 123°12'0 0.1
2017-Sep-21 17:58N 49°18' W 123°12'0 0.0
2017-Sep-21 17:28N 49°18' W 123°12'0 0.1
2017-Sep-21 16:55N 49°18' W 123°12'0 0.1
2017-Sep-21 16:28N 49°18' W 123°12'0 0.0
2017-Sep-21 15:55N 49°18' W 123°12'0 0.1
2017-Sep-21 15:28N 49°18' W 123°12'0 0.1
2017-Sep-21 14:58N 49°18' W 123°12'0 0.1
2017-Sep-21 14:28N 49°18' W 123°12'0 0.2
2017-Sep-21 13:58N 49°18' W 123°12'0 0.0
2017-Sep-21 13:28N 49°18' W 123°12'0 0.1
2017-Sep-21 12:58N 49°18' W 123°12'0 0.0
2017-Sep-21 12:28N 49°18' W 123°12'0 0.1
2017-Sep-21 11:55N 49°18' W 123°12'0 0.0
2017-Sep-21 11:28N 49°18' W 123°12'  

Dump ship's entire track history